Time;durP1;ratioP1;P1;durP2;ratioP2;P2;SDS_P1;SDS_P2;PMS_P1;PMS_P2;Temp;Humidity;BMP_temperature;BMP_pressure;BME280_temperature;BME280_humidity;BME280_pressure;Samples;Min_cycle;Max_cycle;Signal;HPM_P1;HPM_P2
2021/07/26 00:00:28;;;;;;;;;8.00;8.00;;;;;;;;5072298;28;50959;-57
2021/07/26 00:02:53;;;;;;;;;10.00;9.33;;;;;;;;5069811;27;51034;-58
2021/07/26 00:05:18;;;;;;;;;10.33;10.00;;;;;;;;5066453;27;50940;-58
2021/07/26 00:07:43;;;;;;;;;9.00;9.00;;;;;;;;5070322;28;52220;-56
2021/07/26 00:10:09;;;;;;;;;9.67;9.67;;;;;;;;5064290;28;50910;-57
2021/07/26 00:12:34;;;;;;;;;9.33;8.00;;;;;;;;5072239;27;51055;-57
2021/07/26 00:15:00;;;;;;;;;9.00;9.00;;;;;;;;5073739;27;51024;-57
2021/07/26 00:17:25;;;;;;;;;9.00;9.00;;;;;;;;5072791;27;51097;-58
2021/07/26 00:19:50;;;;;;;;;7.33;7.33;;;;;;;;5070496;27;50956;-58
2021/07/26 00:22:16;;;;;;;;;8.00;8.00;;;;;;;;5065821;27;51211;-56
2021/07/26 00:24:41;;;;;;;;;10.33;10.33;;;;;;;;5072401;28;50913;-57
2021/07/26 00:27:06;;;;;;;;;9.00;9.00;;;;;;;;5073074;27;51189;-57
2021/07/26 00:29:31;;;;;;;;;13.00;13.00;;;;;;;;5071743;28;51140;-57
2021/07/26 00:31:56;;;;;;;;;12.33;12.00;;;;;;;;5073053;27;51051;-57
2021/07/26 00:34:25;;;;;;;;;15.00;14.33;;;;;;;;5073353;27;51043;-56
2021/07/26 00:36:50;;;;;;;;;15.67;15.00;;;;;;;;5068378;28;52107;-57
2021/07/26 00:39:20;;;;;;;;;15.33;14.67;;;;;;;;5070239;28;50904;-57
2021/07/26 00:41:47;;;;;;;;;13.67;13.67;;;;;;;;5072834;27;51102;-57
2021/07/26 00:44:13;;;;;;;;;15.33;14.33;;;;;;;;5073149;28;51338;-57
2021/07/26 00:46:38;;;;;;;;;16.25;15.25;;;;;;;;5072242;27;52277;-57
2021/07/26 00:49:05;;;;;;;;;13.00;13.00;;;;;;;;5071062;27;51151;-57
2021/07/26 00:51:31;;;;;;;;;14.00;12.00;;;;;;;;5071783;27;51025;-57
2021/07/26 00:53:57;;;;;;;;;12.67;11.67;;;;;;;;5071610;27;51243;-56
2021/07/26 00:56:23;;;;;;;;;16.33;15.33;;;;;;;;5072464;27;51010;-57
2021/07/26 00:58:48;;;;;;;;;15.00;13.00;;;;;;;;5067363;27;51042;-57
2021/07/26 01:01:13;;;;;;;;;13.67;12.00;;;;;;;;5071730;28;50851;-56
2021/07/26 01:03:41;;;;;;;;;13.67;13.67;;;;;;;;5072918;27;50829;-57
2021/07/26 01:06:07;;;;;;;;;18.00;17.00;;;;;;;;5064316;28;51008;-57
2021/07/26 01:08:32;;;;;;;;;16.33;15.67;;;;;;;;5063447;27;51139;-57
2021/07/26 01:10:57;;;;;;;;;19.25;19.25;;;;;;;;5071503;27;51287;-56
2021/07/26 01:13:26;;;;;;;;;20.50;19.00;;;;;;;;5071348;28;51286;-57
2021/07/26 01:15:51;;;;;;;;;18.75;18.00;;;;;;;;5071098;27;51894;-56
2021/07/26 01:18:17;;;;;;;;;20.00;19.75;;;;;;;;5064702;27;51634;-57
2021/07/26 01:20:42;;;;;;;;;19.00;18.00;;;;;;;;5072473;27;51300;-57
2021/07/26 01:23:07;;;;;;;;;19.00;17.75;;;;;;;;5072709;27;51097;-57
2021/07/26 01:25:36;;;;;;;;;17.67;17.00;;;;;;;;5067207;27;50926;-57
2021/07/26 01:28:01;;;;;;;;;20.00;18.75;;;;;;;;5063741;28;51198;-57
2021/07/26 01:30:26;;;;;;;;;18.67;18.00;;;;;;;;5071977;27;50898;-58
2021/07/26 01:32:52;;;;;;;;;14.67;14.33;;;;;;;;5072664;28;51195;-57
2021/07/26 01:35:17;;;;;;;;;16.25;16.25;;;;;;;;5072093;27;51029;-56
2021/07/26 01:37:42;;;;;;;;;14.00;14.00;;;;;;;;5070780;27;51103;-57
2021/07/26 01:40:07;;;;;;;;;16.00;12.33;;;;;;;;5072276;27;51250;-56
2021/07/26 01:42:40;;;;;;;;;11.67;11.33;;;;;;;;5070459;27;51038;-56
2021/07/26 01:45:05;;;;;;;;;11.33;11.33;;;;;;;;5072030;27;51332;-56
2021/07/26 01:47:30;;;;;;;;;10.00;9.33;;;;;;;;5065460;27;51016;-56
2021/07/26 01:50:01;;;;;;;;;13.00;11.67;;;;;;;;5072157;28;51128;-57
2021/07/26 01:52:26;;;;;;;;;16.00;12.67;;;;;;;;5071028;27;51229;-58
2021/07/26 01:54:51;;;;;;;;;10.33;10.33;;;;;;;;5071689;27;53056;-57
2021/07/26 01:57:17;;;;;;;;;11.33;10.33;;;;;;;;5066842;27;51114;-58
2021/07/26 01:59:42;;;;;;;;;14.33;13.67;;;;;;;;5074980;27;51037;-56
2021/07/26 02:02:08;;;;;;;;;16.00;16.00;;;;;;;;5073725;27;51265;-58
2021/07/26 02:04:33;;;;;;;;;14.67;14.00;;;;;;;;5074413;27;52020;-57
2021/07/26 02:06:58;;;;;;;;;13.67;13.33;;;;;;;;5066691;28;51166;-57
2021/07/26 02:09:23;;;;;;;;;14.75;14.00;;;;;;;;5075046;27;50993;-57
2021/07/26 02:11:49;;;;;;;;;14.67;14.00;;;;;;;;5065745;27;51216;-57
2021/07/26 02:14:14;;;;;;;;;14.67;13.67;;;;;;;;5069934;28;51309;-57
2021/07/26 02:16:39;;;;;;;;;12.00;12.00;;;;;;;;5075493;28;51138;-57
2021/07/26 02:19:06;;;;;;;;;14.00;13.33;;;;;;;;5064981;27;50854;-57
2021/07/26 02:21:31;;;;;;;;;14.25;13.75;;;;;;;;5074505;27;51207;-57
2021/07/26 02:23:57;;;;;;;;;11.33;11.33;;;;;;;;5072747;27;51823;-57
2021/07/26 02:26:22;;;;;;;;;15.00;14.33;;;;;;;;5075326;28;51084;-57
2021/07/26 02:28:47;;;;;;;;;13.33;13.33;;;;;;;;5075041;27;51662;-57
2021/07/26 02:31:12;;;;;;;;;17.00;16.67;;;;;;;;5075313;27;51317;-57
2021/07/26 02:33:38;;;;;;;;;15.67;15.67;;;;;;;;5072748;27;51423;-57
2021/07/26 02:36:03;;;;;;;;;15.33;14.00;;;;;;;;5073724;27;51129;-57
2021/07/26 02:38:28;;;;;;;;;13.33;13.00;;;;;;;;5074517;27;52080;-57
2021/07/26 02:40:53;;;;;;;;;15.75;15.75;;;;;;;;5075213;27;51092;-57
2021/07/26 02:43:18;;;;;;;;;17.67;16.33;;;;;;;;5072899;27;51929;-57
2021/07/26 02:45:44;;;;;;;;;13.67;13.67;;;;;;;;5074931;27;51067;-57
2021/07/26 02:48:10;;;;;;;;;18.75;17.75;;;;;;;;5074751;27;51044;-57
2021/07/26 02:50:35;;;;;;;;;15.00;15.00;;;;;;;;5073203;27;51185;-57
2021/07/26 02:53:01;;;;;;;;;13.67;13.67;;;;;;;;5073294;28;51948;-57
2021/07/26 02:55:27;;;;;;;;;15.50;14.50;;;;;;;;5074841;27;50861;-57
2021/07/26 02:57:53;;;;;;;;;11.75;11.75;;;;;;;;5074686;27;50869;-57
2021/07/26 03:00:19;;;;;;;;;14.33;13.33;;;;;;;;5074888;27;50908;-57
2021/07/26 03:02:44;;;;;;;;;20.75;17.75;;;;;;;;5071938;27;51140;-57
2021/07/26 03:05:09;;;;;;;;;18.00;16.00;;;;;;;;5068539;27;50919;-57
2021/07/26 03:07:35;;;;;;;;;14.00;14.00;;;;;;;;5069571;28;51128;-57
2021/07/26 03:10:00;;;;;;;;;15.67;15.33;;;;;;;;5074570;27;51003;-57
2021/07/26 03:12:25;;;;;;;;;16.75;15.50;;;;;;;;5074083;27;52519;-58
2021/07/26 03:14:50;;;;;;;;;11.75;10.75;;;;;;;;5074686;27;51040;-57
2021/07/26 03:17:15;;;;;;;;;13.00;13.00;;;;;;;;5072493;28;51010;-57
2021/07/26 03:19:41;;;;;;;;;20.00;19.50;;;;;;;;5067501;27;51059;-57
2021/07/26 03:22:25;;;;;;;;;17.00;16.75;;;;;;;;5061869;28;51150;-57
2021/07/26 03:24:50;;;;;;;;;16.75;15.50;;;;;;;;5073180;28;51281;-57
2021/07/26 03:27:15;;;;;;;;;20.00;19.00;;;;;;;;5074116;27;51266;-57
2021/07/26 03:29:40;;;;;;;;;21.00;18.75;;;;;;;;5074404;27;51085;-57
2021/07/26 03:32:06;;;;;;;;;16.50;16.50;;;;;;;;5072634;28;52270;-58
2021/07/26 03:34:31;;;;;;;;;19.25;17.25;;;;;;;;5072901;28;51358;-57
2021/07/26 03:36:56;;;;;;;;;18.75;17.50;;;;;;;;5072105;27;51025;-57
2021/07/26 03:39:21;;;;;;;;;17.25;16.00;;;;;;;;5065587;27;51228;-57
2021/07/26 03:41:46;;;;;;;;;23.25;21.50;;;;;;;;5072283;28;52163;-57
2021/07/26 03:44:11;;;;;;;;;21.25;21.00;;;;;;;;5074215;27;50926;-57
2021/07/26 03:46:37;;;;;;;;;19.25;19.00;;;;;;;;5073000;27;51092;-57
2021/07/26 03:49:02;;;;;;;;;19.75;18.75;;;;;;;;5073096;27;51152;-58
2021/07/26 03:51:27;;;;;;;;;20.25;19.50;;;;;;;;5072294;28;52009;-57
2021/07/26 03:53:53;;;;;;;;;18.75;18.50;;;;;;;;5073545;27;51076;-57
2021/07/26 03:56:18;;;;;;;;;21.50;20.25;;;;;;;;5073475;27;51067;-57
2021/07/26 03:58:43;;;;;;;;;21.50;20.75;;;;;;;;5073859;27;51198;-57
2021/07/26 04:01:08;;;;;;;;;27.75;27.75;;;;;;;;5073361;27;52346;-57
2021/07/26 04:03:33;;;;;;;;;19.00;18.25;;;;;;;;5072670;27;51445;-57
2021/07/26 04:08:30;;;;;;;;;20.25;19.25;;;;;;;;5073557;27;51137;-57
2021/07/26 04:11:07;;;;;;;;;18.75;17.25;;;;;;;;5071079;27;51387;-57
2021/07/26 04:13:36;;;;;;;;;23.25;23.25;;;;;;;;5072614;27;51051;-57
2021/07/26 04:16:02;;;;;;;;;21.50;21.50;;;;;;;;5073114;27;51083;-57
2021/07/26 04:18:28;;;;;;;;;22.25;20.75;;;;;;;;5070180;27;50977;-58
2021/07/26 04:20:54;;;;;;;;;16.50;15.50;;;;;;;;5068086;28;52713;-57
2021/07/26 04:23:19;;;;;;;;;20.00;19.75;;;;;;;;5065107;27;51093;-57
2021/07/26 04:25:44;;;;;;;;;20.25;19.50;;;;;;;;5072716;27;50925;-57
2021/07/26 04:28:09;;;;;;;;;20.00;18.25;;;;;;;;5073551;27;51291;-57
2021/07/26 04:30:34;;;;;;;;;20.00;20.00;;;;;;;;5070366;27;51230;-57
2021/07/26 04:33:00;;;;;;;;;17.75;16.75;;;;;;;;5068026;28;51062;-58
2021/07/26 04:35:25;;;;;;;;;17.50;17.50;;;;;;;;5072281;27;50888;-58
2021/07/26 04:37:50;;;;;;;;;18.00;17.50;;;;;;;;5071978;28;51089;-57
2021/07/26 04:40:15;;;;;;;;;18.00;17.25;;;;;;;;5064098;27;52168;-57
2021/07/26 04:42:41;;;;;;;;;15.33;15.33;;;;;;;;5071955;27;50910;-58
2021/07/26 04:45:08;;;;;;;;;14.67;13.67;;;;;;;;5072905;27;51073;-58
2021/07/26 04:47:33;;;;;;;;;15.00;15.00;;;;;;;;5072826;27;51372;-58
2021/07/26 04:49:59;;;;;;;;;17.00;17.00;;;;;;;;5071183;28;54045;-58
2021/07/26 04:52:24;;;;;;;;;15.33;14.67;;;;;;;;5070499;28;51040;-58
2021/07/26 04:54:49;;;;;;;;;15.33;13.67;;;;;;;;5071803;28;51349;-57
2021/07/26 04:57:14;;;;;;;;;13.00;12.67;;;;;;;;5071085;27;51197;-58
2021/07/26 04:59:40;;;;;;;;;14.33;13.67;;;;;;;;5071961;28;51024;-57
2021/07/26 05:02:05;;;;;;;;;18.33;17.33;;;;;;;;5071456;28;51106;-57
2021/07/26 05:04:30;;;;;;;;;14.67;12.67;;;;;;;;5056286;28;51785;-58
2021/07/26 05:07:00;;;;;;;;;15.33;13.33;;;;;;;;5052143;28;51154;-57
2021/07/26 05:09:25;;;;;;;;;14.00;14.00;;;;;;;;5058684;28;53191;-57
2021/07/26 05:11:50;;;;;;;;;13.00;12.67;;;;;;;;5056858;27;51261;-58
2021/07/26 05:14:15;;;;;;;;;14.67;13.67;;;;;;;;5065467;28;51281;-58
2021/07/26 05:16:41;;;;;;;;;12.00;12.00;;;;;;;;5070747;27;50833;-58
2021/07/26 05:19:06;;;;;;;;;13.00;13.00;;;;;;;;5072424;27;51208;-59
2021/07/26 05:21:31;;;;;;;;;12.33;11.67;;;;;;;;5070214;27;51075;-58
2021/07/26 05:23:56;;;;;;;;;14.33;13.00;;;;;;;;5071866;27;51339;-58
2021/07/26 05:26:22;;;;;;;;;13.00;13.00;;;;;;;;5072629;27;51372;-58
2021/07/26 05:28:47;;;;;;;;;12.67;11.67;;;;;;;;5071674;27;51811;-58
2021/07/26 05:31:12;;;;;;;;;15.33;13.67;;;;;;;;5065127;28;51159;-58
2021/07/26 05:33:37;;;;;;;;;12.00;12.00;;;;;;;;5074881;27;50981;-57
2021/07/26 05:36:03;;;;;;;;;15.33;14.33;;;;;;;;5076009;27;50902;-58
2021/07/26 05:38:28;;;;;;;;;14.00;14.00;;;;;;;;5068738;27;51814;-57
2021/07/26 05:40:53;;;;;;;;;11.33;11.33;;;;;;;;5064929;27;51144;-59
2021/07/26 05:43:18;;;;;;;;;11.00;10.33;;;;;;;;5073542;28;51018;-59
2021/07/26 05:45:44;;;;;;;;;12.00;12.00;;;;;;;;5074080;27;51116;-58
2021/07/26 05:48:10;;;;;;;;;11.33;10.33;;;;;;;;5073895;28;53308;-60
2021/07/26 05:50:35;;;;;;;;;10.00;10.00;;;;;;;;5073238;27;50988;-59
2021/07/26 05:53:03;;;;;;;;;10.00;10.00;;;;;;;;5074433;28;51220;-58
2021/07/26 05:55:30;;;;;;;;;12.00;12.00;;;;;;;;5075820;27;51250;-58
2021/07/26 05:57:56;;;;;;;;;12.67;11.33;;;;;;;;5065622;27;51850;-58
2021/07/26 06:00:35;;;;;;;;;10.33;10.33;;;;;;;;5059573;27;51017;-57
2021/07/26 06:03:00;;;;;;;;;8.67;8.67;;;;;;;;5059669;28;51376;-57
2021/07/26 06:05:25;;;;;;;;;14.33;12.33;;;;;;;;5072474;28;51158;-58
2021/07/26 06:07:50;;;;;;;;;14.50;11.50;;;;;;;;5074523;27;51004;-56
2021/07/26 06:10:16;;;;;;;;;13.33;12.33;;;;;;;;5074406;27;50998;-58
2021/07/26 06:12:41;;;;;;;;;12.33;11.00;;;;;;;;5073682;28;51263;-57
2021/07/26 06:15:06;;;;;;;;;12.33;12.00;;;;;;;;5074454;27;51062;-57
2021/07/26 06:17:31;;;;;;;;;11.33;11.33;;;;;;;;5073343;28;52771;-56
2021/07/26 06:19:57;;;;;;;;;12.33;12.33;;;;;;;;5075085;27;50899;-57
2021/07/26 06:22:22;;;;;;;;;10.67;10.00;;;;;;;;5074913;27;50914;-57
2021/07/26 06:24:47;;;;;;;;;10.67;10.00;;;;;;;;5075319;27;51065;-56
2021/07/26 06:27:12;;;;;;;;;12.00;11.00;;;;;;;;5074325;27;51757;-57
2021/07/26 06:29:37;;;;;;;;;13.67;12.00;;;;;;;;5074360;27;50998;-57
2021/07/26 06:32:04;;;;;;;;;12.00;12.00;;;;;;;;5074958;27;51184;-58
2021/07/26 06:34:38;;;;;;;;;12.67;12.00;;;;;;;;5060811;27;51058;-55
2021/07/26 06:37:04;;;;;;;;;10.00;9.00;;;;;;;;5066945;28;51052;-58
2021/07/26 06:39:29;;;;;;;;;8.33;8.33;;;;;;;;5073977;27;50976;-56
2021/07/26 06:41:54;;;;;;;;;12.67;10.00;;;;;;;;5074230;27;50965;-58
2021/07/26 06:44:19;;;;;;;;;12.00;11.33;;;;;;;;5073795;27;50926;-59
2021/07/26 06:46:44;;;;;;;;;11.33;11.00;;;;;;;;5073379;28;52193;-57
2021/07/26 06:49:10;;;;;;;;;13.33;13.33;;;;;;;;5073944;27;51142;-57
2021/07/26 06:51:35;;;;;;;;;13.67;12.33;;;;;;;;5073871;28;51028;-56
2021/07/26 06:54:00;;;;;;;;;12.67;12.00;;;;;;;;5074094;27;51007;-58
2021/07/26 06:56:25;;;;;;;;;16.00;15.33;;;;;;;;5072929;28;51893;-58
2021/07/26 06:58:51;;;;;;;;;15.00;15.00;;;;;;;;5063739;27;50975;-57
2021/07/26 07:01:17;;;;;;;;;15.33;14.33;;;;;;;;5073340;28;51042;-58
2021/07/26 07:03:43;;;;;;;;;16.67;15.00;;;;;;;;5074283;27;51364;-59
2021/07/26 07:06:09;;;;;;;;;15.00;13.00;;;;;;;;5065247;28;51828;-58
2021/07/26 07:08:35;;;;;;;;;13.33;12.67;;;;;;;;5073957;27;50883;-57
2021/07/26 07:11:04;;;;;;;;;12.00;12.00;;;;;;;;5074086;28;51061;-57
2021/07/26 07:13:29;;;;;;;;;14.00;13.33;;;;;;;;5074254;28;51314;-58
2021/07/26 07:15:54;;;;;;;;;14.67;12.67;;;;;;;;5073550;27;52244;-58
2021/07/26 07:18:19;;;;;;;;;12.67;12.00;;;;;;;;5074219;27;51078;-57
2021/07/26 07:20:44;;;;;;;;;14.67;13.00;;;;;;;;5071704;27;51362;-59
2021/07/26 07:23:09;;;;;;;;;11.33;10.67;;;;;;;;5071897;28;50868;-58
2021/07/26 07:25:35;;;;;;;;;12.00;11.33;;;;;;;;5073681;27;51218;-58
2021/07/26 07:28:00;;;;;;;;;11.33;10.67;;;;;;;;5074239;27;50990;-58
2021/07/26 07:30:26;;;;;;;;;13.00;12.33;;;;;;;;5073690;27;51273;-58
2021/07/26 07:32:51;;;;;;;;;13.00;13.00;;;;;;;;5074117;27;51194;-57
2021/07/26 07:35:17;;;;;;;;;14.33;13.00;;;;;;;;5073538;27;51757;-56
2021/07/26 07:37:42;;;;;;;;;15.33;14.67;;;;;;;;5072182;28;51086;-58
2021/07/26 07:40:07;;;;;;;;;13.67;13.67;;;;;;;;5073394;27;51002;-58
2021/07/26 07:42:33;;;;;;;;;15.00;13.67;;;;;;;;5073737;27;51030;-57
2021/07/26 07:44:58;;;;;;;;;17.00;16.00;;;;;;;;5073516;27;51035;-58
2021/07/26 07:47:23;;;;;;;;;16.00;15.00;;;;;;;;5056004;27;51180;-58
2021/07/26 07:49:48;;;;;;;;;17.67;17.00;;;;;;;;5073654;28;50923;-58
2021/07/26 07:52:14;;;;;;;;;15.67;15.67;;;;;;;;5073543;27;51129;-57
2021/07/26 07:54:39;;;;;;;;;18.00;17.00;;;;;;;;5073257;28;51855;-59
2021/07/26 07:57:04;;;;;;;;;18.67;18.00;;;;;;;;5072091;27;50872;-57
2021/07/26 07:59:31;;;;;;;;;20.33;19.00;;;;;;;;5073964;27;50941;-57
2021/07/26 08:01:56;;;;;;;;;17.67;17.00;;;;;;;;5073769;28;50883;-57
2021/07/26 08:04:21;;;;;;;;;18.33;18.00;;;;;;;;5073366;27;51314;-57
2021/07/26 08:06:46;;;;;;;;;17.00;17.00;;;;;;;;5067185;27;51097;-56
2021/07/26 08:09:11;;;;;;;;;19.67;17.67;;;;;;;;5073240;27;50936;-56
2021/07/26 08:11:37;;;;;;;;;19.67;18.33;;;;;;;;5073933;27;50872;-56
2021/07/26 08:14:02;;;;;;;;;19.00;17.00;;;;;;;;5072946;28;51903;-58
2021/07/26 08:16:28;;;;;;;;;18.00;17.67;;;;;;;;5073362;27;50936;-57
2021/07/26 08:18:53;;;;;;;;;19.67;19.67;;;;;;;;5072585;27;50805;-58
2021/07/26 08:21:19;;;;;;;;;20.50;20.25;;;;;;;;5073072;27;51281;-58
2021/07/26 08:23:44;;;;;;;;;16.33;15.67;;;;;;;;5072401;27;51909;-57
2021/07/26 08:26:12;;;;;;;;;22.00;21.75;;;;;;;;5073055;27;50978;-58
2021/07/26 08:28:37;;;;;;;;;16.67;16.00;;;;;;;;5072827;27;51085;-57
2021/07/26 08:31:03;;;;;;;;;19.50;19.00;;;;;;;;5072771;27;51255;-57
2021/07/26 08:33:28;;;;;;;;;23.75;22.50;;;;;;;;5072408;27;51772;-59
2021/07/26 08:35:54;;;;;;;;;18.33;17.33;;;;;;;;5072751;28;51122;-58
2021/07/26 08:38:19;;;;;;;;;24.00;23.00;;;;;;;;5072554;27;51062;-57
2021/07/26 08:40:45;;;;;;;;;20.00;19.75;;;;;;;;5073342;28;51364;-59
2021/07/26 08:43:12;;;;;;;;;19.00;19.00;;;;;;;;5072907;27;51782;-57
2021/07/26 08:45:38;;;;;;;;;26.75;25.50;;;;;;;;5072717;27;51048;-57
2021/07/26 08:48:06;;;;;;;;;18.67;17.00;;;;;;;;5070008;27;51429;-57
2021/07/26 08:50:33;;;;;;;;;18.67;16.67;;;;;;;;5071808;27;51287;-58
2021/07/26 08:53:00;;;;;;;;;17.00;16.33;;;;;;;;5072226;27;51125;-58
2021/07/26 08:55:26;;;;;;;;;15.67;15.00;;;;;;;;5072086;27;51020;-58
2021/07/26 08:57:51;;;;;;;;;17.67;15.00;;;;;;;;5072883;27;51133;-58
2021/07/26 09:00:17;;;;;;;;;18.00;17.00;;;;;;;;5071768;28;52049;-57
2021/07/26 09:02:43;;;;;;;;;16.33;14.67;;;;;;;;5072422;27;51745;-57
2021/07/26 09:05:09;;;;;;;;;14.33;13.00;;;;;;;;5066738;28;50903;-58
2021/07/26 09:07:41;;;;;;;;;16.00;16.00;;;;;;;;5070018;28;51090;-57
2021/07/26 09:10:15;;;;;;;;;14.00;13.67;;;;;;;;5079090;27;51192;-57
2021/07/26 09:12:41;;;;;;;;;17.00;16.00;;;;;;;;5078698;27;51011;-56
2021/07/26 09:15:15;;;;;;;;;18.00;18.00;;;;;;;;5076722;28;51111;-57
2021/07/26 09:17:44;;;;;;;;;22.00;20.33;;;;;;;;5079186;27;51142;-57
2021/07/26 09:20:09;;;;;;;;;16.33;15.00;;;;;;;;5079062;27;51256;-58
2021/07/26 09:22:36;;;;;;;;;15.67;15.00;;;;;;;;5071029;27;51643;-58
2021/07/26 09:25:19;;;;;;;;;14.67;14.00;;;;;;;;5071137;28;50812;-58
2021/07/26 09:27:56;;;;;;;;;17.33;17.00;;;;;;;;5078648;27;51060;-57
2021/07/26 09:30:21;;;;;;;;;16.67;15.67;;;;;;;;5078846;27;51546;-57
2021/07/26 09:32:47;;;;;;;;;17.00;15.67;;;;;;;;5078392;27;51222;-57
2021/07/26 09:35:12;;;;;;;;;20.33;18.67;;;;;;;;5078885;27;51033;-58
2021/07/26 09:37:37;;;;;;;;;16.00;15.33;;;;;;;;5078405;28;51119;-58
2021/07/26 09:40:24;;;;;;;;;19.00;17.33;;;;;;;;5078771;27;51037;-57
2021/07/26 09:42:49;;;;;;;;;17.33;16.00;;;;;;;;5078427;27;51185;-56
2021/07/26 09:45:22;;;;;;;;;14.67;14.67;;;;;;;;5078484;27;51149;-57
2021/07/26 09:48:06;;;;;;;;;16.33;16.00;;;;;;;;5071305;28;51729;-57
2021/07/26 09:50:35;;;;;;;;;18.00;16.33;;;;;;;;5074547;28;51348;-57
2021/07/26 09:53:07;;;;;;;;;20.00;18.50;;;;;;;;5078038;27;51224;-56
2021/07/26 09:55:33;;;;;;;;;18.00;17.33;;;;;;;;5078092;27;51068;-58
2021/07/26 09:58:02;;;;;;;;;16.00;15.67;;;;;;;;5078309;27;51151;-58
2021/07/26 10:00:28;;;;;;;;;17.25;16.75;;;;;;;;5078356;27;51220;-57
2021/07/26 10:02:54;;;;;;;;;13.67;13.67;;;;;;;;5076979;28;52060;-57
2021/07/26 10:05:20;;;;;;;;;16.67;16.33;;;;;;;;5075403;27;51097;-57
2021/07/26 10:07:46;;;;;;;;;18.33;16.67;;;;;;;;5077927;27;51276;-57
2021/07/26 10:10:12;;;;;;;;;14.33;13.33;;;;;;;;5078381;27;51255;-57
2021/07/26 10:12:38;;;;;;;;;18.33;18.33;;;;;;;;5078019;27;51884;-58
2021/07/26 10:15:04;;;;;;;;;18.33;17.00;;;;;;;;5077529;27;51011;-58
2021/07/26 10:17:29;;;;;;;;;15.67;15.67;;;;;;;;5077918;27;51069;-57
2021/07/26 10:19:55;;;;;;;;;18.67;17.67;;;;;;;;5074514;27;51370;-57
2021/07/26 10:22:23;;;;;;;;;19.33;18.33;;;;;;;;5074279;27;52149;-58
2021/07/26 10:25:06;;;;;;;;;15.00;14.33;;;;;;;;5074507;27;51020;-59
2021/07/26 10:27:32;;;;;;;;;17.67;16.67;;;;;;;;5074031;28;50933;-57
2021/07/26 10:29:58;;;;;;;;;21.00;21.00;;;;;;;;5074619;27;51146;-59
2021/07/26 10:32:30;;;;;;;;;19.67;19.33;;;;;;;;5073656;27;51591;-58
2021/07/26 10:34:58;;;;;;;;;21.50;20.25;;;;;;;;5074117;27;50946;-57
2021/07/26 10:37:53;;;;;;;;;21.33;19.67;;;;;;;;5073935;27;51045;-58
2021/07/26 10:40:22;;;;;;;;;20.00;18.00;;;;;;;;5045565;28;50937;-58
2021/07/26 10:42:52;;;;;;;;;21.00;21.00;;;;;;;;5072725;28;52624;-57
2021/07/26 10:45:35;;;;;;;;;18.00;18.00;;;;;;;;5073850;27;50903;-58
2021/07/26 10:48:19;;;;;;;;;24.00;18.33;;;;;;;;5073856;27;51081;-58
2021/07/26 10:50:47;;;;;;;;;17.67;17.00;;;;;;;;5058982;28;51334;-58
2021/07/26 10:53:31;;;;;;;;;14.67;14.67;;;;;;;;5072674;27;51796;-57
2021/07/26 10:56:07;;;;;;;;;16.67;16.67;;;;;;;;5073200;28;51065;-57
2021/07/26 10:58:38;;;;;;;;;16.33;16.33;;;;;;;;5074033;27;51093;-57
2021/07/26 11:01:22;;;;;;;;;16.33;16.00;;;;;;;;5074068;27;51265;-58
2021/07/26 11:03:48;;;;;;;;;18.00;16.67;;;;;;;;5073457;27;51898;-59
2021/07/26 11:06:32;;;;;;;;;16.33;16.33;;;;;;;;5066822;27;50990;-58
2021/07/26 11:09:17;;;;;;;;;18.33;18.33;;;;;;;;5073685;28;50991;-61
2021/07/26 11:11:42;;;;;;;;;18.67;18.00;;;;;;;;5073761;27;51073;-58
2021/07/26 11:14:09;;;;;;;;;15.33;14.67;;;;;;;;5073082;27;51926;-58
2021/07/26 11:16:58;;;;;;;;;14.67;14.67;;;;;;;;5073269;27;51040;-61
2021/07/26 11:19:32;;;;;;;;;15.00;14.33;;;;;;;;5073921;27;51069;-57
2021/07/26 11:21:58;;;;;;;;;15.75;14.50;;;;;;;;5073264;27;51239;-59
2021/07/26 11:24:42;;;;;;;;;14.00;13.00;;;;;;;;5070015;27;52246;-58
2021/07/26 11:27:11;;;;;;;;;7.00;7.00;;;;;;;;5073394;28;50982;-59
2021/07/26 11:29:36;;;;;;;;;10.67;10.67;;;;;;;;5072993;27;51050;-56
2021/07/26 11:32:02;;;;;;;;;11.00;11.00;;;;;;;;5072859;28;51260;-57
2021/07/26 11:34:28;;;;;;;;;10.00;10.00;;;;;;;;5071278;28;51028;-58
2021/07/26 11:37:09;;;;;;;;;9.00;8.67;;;;;;;;5072131;27;51457;-58
2021/07/26 11:39:53;;;;;;;;;7.33;7.33;;;;;;;;5072793;27;50910;-57
2021/07/26 11:42:21;;;;;;;;;5.33;5.00;;;;;;;;5073224;27;51385;-58
2021/07/26 11:44:48;;;;;;;;;9.33;8.00;;;;;;;;5072927;27;51253;-58
2021/07/26 11:47:15;;;;;;;;;9.00;9.00;;;;;;;;5073493;27;51075;-59
2021/07/26 11:49:47;;;;;;;;;8.00;8.00;;;;;;;;5072968;27;51117;-57
2021/07/26 11:52:12;;;;;;;;;9.33;9.00;;;;;;;;5064832;28;51492;-59
2021/07/26 11:54:37;;;;;;;;;7.33;7.00;;;;;;;;5072011;27;51952;-58
2021/07/26 11:57:04;;;;;;;;;7.33;7.33;;;;;;;;5073351;27;50922;-59
2021/07/26 11:59:31;;;;;;;;;4.00;3.67;;;;;;;;5072662;27;51056;-58
2021/07/26 12:01:57;;;;;;;;;8.67;8.00;;;;;;;;5072376;27;50955;-58
2021/07/26 12:04:27;;;;;;;;;12.33;11.67;;;;;;;;5072009;27;52984;-59
2021/07/26 12:06:59;;;;;;;;;7.00;7.00;;;;;;;;5058034;28;51079;-57
2021/07/26 12:09:25;;;;;;;;;8.33;8.33;;;;;;;;5072478;27;50950;-58
2021/07/26 12:11:50;;;;;;;;;10.00;9.67;;;;;;;;5072547;28;50938;-57
2021/07/26 12:14:25;;;;;;;;;11.33;9.67;;;;;;;;5072036;27;51968;-57
2021/07/26 12:17:05;;;;;;;;;10.67;9.33;;;;;;;;5071519;28;51013;-60
2021/07/26 12:19:31;;;;;;;;;9.00;9.00;;;;;;;;5072665;28;50989;-58
2021/07/26 12:21:57;;;;;;;;;11.33;10.00;;;;;;;;5071153;28;51157;-58
2021/07/26 12:24:40;;;;;;;;;10.67;10.00;;;;;;;;5072275;27;51256;-57
2021/07/26 12:27:06;;;;;;;;;10.67;10.67;;;;;;;;5072284;28;50965;-59
2021/07/26 12:29:31;;;;;;;;;10.67;10.00;;;;;;;;5071285;28;51242;-58
2021/07/26 12:32:06;;;;;;;;;10.00;10.00;;;;;;;;5072718;27;51178;-58
2021/07/26 12:34:31;;;;;;;;;11.33;11.33;;;;;;;;5072563;27;52226;-58
2021/07/26 12:37:06;;;;;;;;;15.67;14.33;;;;;;;;5072616;27;51042;-58
2021/07/26 12:39:38;;;;;;;;;10.67;10.67;;;;;;;;5072907;27;50929;-59
2021/07/26 12:42:19;;;;;;;;;13.67;13.67;;;;;;;;5070262;28;52628;-57
2021/07/26 12:44:45;;;;;;;;;14.00;14.00;;;;;;;;5071713;27;52751;-57
2021/07/26 12:47:26;;;;;;;;;16.00;14.00;;;;;;;;5072268;27;51013;-58
2021/07/26 12:49:51;;;;;;;;;16.33;15.67;;;;;;;;5072479;27;51129;-57
2021/07/26 12:52:17;;;;;;;;;12.33;11.33;;;;;;;;5057197;28;51220;-60
2021/07/26 12:54:43;;;;;;;;;14.00;14.00;;;;;;;;5071112;27;52873;-56
2021/07/26 12:57:08;;;;;;;;;16.00;16.00;;;;;;;;5072197;27;51102;-57
2021/07/26 12:59:34;;;;;;;;;18.67;17.67;;;;;;;;5071617;27;51133;-57
2021/07/26 13:01:59;;;;;;;;;16.33;15.33;;;;;;;;5071916;27;50860;-56
2021/07/26 13:04:24;;;;;;;;;12.33;12.33;;;;;;;;5072118;27;51385;-58
2021/07/26 13:06:49;;;;;;;;;16.33;16.00;;;;;;;;5066160;28;50933;-57
2021/07/26 13:09:14;;;;;;;;;18.00;17.00;;;;;;;;5072277;27;51280;-59
2021/07/26 13:11:40;;;;;;;;;12.00;11.67;;;;;;;;5071783;27;50906;-58
2021/07/26 13:14:05;;;;;;;;;14.00;13.00;;;;;;;;5071291;27;51262;-58
2021/07/26 13:16:30;;;;;;;;;12.00;11.67;;;;;;;;5072031;27;50870;-57
2021/07/26 13:18:55;;;;;;;;;9.67;9.67;;;;;;;;5071867;27;51058;-58
2021/07/26 13:21:21;;;;;;;;;11.00;11.00;;;;;;;;5071917;28;51149;-57
2021/07/26 13:23:48;;;;;;;;;19.33;16.00;;;;;;;;5069043;27;52193;-58
2021/07/26 13:26:13;;;;;;;;;13.67;12.00;;;;;;;;5067894;27;51176;-58
2021/07/26 13:28:38;;;;;;;;;11.67;11.00;;;;;;;;5071863;27;51344;-58
2021/07/26 13:31:03;;;;;;;;;9.33;9.33;;;;;;;;5071591;27;51053;-58
2021/07/26 13:33:28;;;;;;;;;10.00;10.00;;;;;;;;5071215;27;52027;-57
2021/07/26 13:35:54;;;;;;;;;10.33;10.33;;;;;;;;5071682;27;50945;-57
2021/07/26 13:38:19;;;;;;;;;12.67;12.00;;;;;;;;5069930;28;51090;-57
2021/07/26 13:40:44;;;;;;;;;13.33;13.00;;;;;;;;5071777;27;51410;-57
2021/07/26 13:43:09;;;;;;;;;14.33;13.33;;;;;;;;5071120;28;51007;-58
2021/07/26 13:45:35;;;;;;;;;17.00;17.00;;;;;;;;5071700;27;51094;-57
2021/07/26 13:48:02;;;;;;;;;15.33;15.00;;;;;;;;5070856;27;51051;-57
2021/07/26 13:50:27;;;;;;;;;17.00;16.75;;;;;;;;5071335;27;51284;-58
2021/07/26 13:52:53;;;;;;;;;16.00;15.00;;;;;;;;5056845;27;51844;-59
2021/07/26 13:55:18;;;;;;;;;19.00;17.33;;;;;;;;5073524;28;51023;-58
2021/07/26 13:57:43;;;;;;;;;15.50;14.75;;;;;;;;5075141;27;51196;-57
2021/07/26 14:00:09;;;;;;;;;17.67;17.00;;;;;;;;5073763;28;51189;-58
2021/07/26 14:02:35;;;;;;;;;19.50;18.75;;;;;;;;5074267;27;52727;-57
2021/07/26 14:05:00;;;;;;;;;20.00;20.00;;;;;;;;5069566;27;50797;-56
2021/07/26 14:07:26;;;;;;;;;21.25;20.50;;;;;;;;5066322;28;51167;-57
2021/07/26 14:09:51;;;;;;;;;17.50;16.50;;;;;;;;5056123;28;51079;-58
2021/07/26 14:12:16;;;;;;;;;21.75;21.00;;;;;;;;5073809;28;51869;-57
2021/07/26 14:14:42;;;;;;;;;31.00;28.00;;;;;;;;5073844;27;50981;-57
2021/07/26 14:17:08;;;;;;;;;21.00;20.25;;;;;;;;5074147;27;51108;-58
2021/07/26 14:19:34;;;;;;;;;21.75;20.75;;;;;;;;5073748;27;51366;-57